Hannibal, MO (63401)

8:33 AM CDT on August 30, 2016 (GMT -0500)
| | Change Station

Elev -9999 ft 0.00 °N, 0.00 °E | Updated

Cloudy
Cloudy
81 °F
Feels Like 85 °F
N
3
Wind Variable Wind from WNW
Gusts mph

Today
High -- | Low -- °F
--% Chance of Precip.
Yesterday
High -- | Low -- °F
Precip. -- in
Pressure 30.16 in
Visibility 1.2 miles
Clouds Overcast 100 ft
Heat Index 85 °F
Dew Point 71 °F
Humidity 71%
Rainfall --
Snow Depth Not available.
6:32 AM 7:38 PM
Waning Crescent, 4% visible
METAR KHAE 301315Z AUTO 35004KT 1 1/4SM VCTS BR OVC001 23/22 A3016 RMK AO2 LTG DSNT W AND NW
Pressure 30.16 in
Visibility 1.2 miles
Clouds Overcast 100 ft
Heat Index 85 °F
Dew Point 71 °F
Humidity 71%
Rainfall --
Snow Depth Not available.
6:32 AM 7:38 PM
Waning Crescent, 4% visible
METAR KHAE 301315Z AUTO 35004KT 1 1/4SM VCTS BR OVC001 23/22 A3016 RMK AO2 LTG DSNT W AND NW

10-Day Weather Forecast

Almanac

Astronomy

Aug. 30, 2016 Rise Set
Actual Time
Civil Twilight
Nautical Twilight
Astronomical Twilight
Moon
Length of Visible Light
Length of Day
Tomorrow will be .
, % of the Moon is Illuminated

Today's Extremes

State Highs State Lows

Community

WunderPhotos

Upload Photos

1,935,831 photos uploaded!

WunderBlog® & News

Nearby

Air Quality

  Air Quality AQ Index Pollutant
Not available.

Snow Depth

Station Depth Elevation

Earthquake Activity

City Distance Mag. Time & Date
Minimum magnitude displayed is 2.5.

Coastal Water Temperatures

Place Temperature

Stations

Nearby Weather Stations

Station Location Temp. Windchill Dew Point Humidity Wind Precip. Elev Updated Type
                   

Watches & Warnings

There are currently no watches in effect.